Terminal Aerodrome Forecast
Issued by NWS

Current Version | Previous Version | Text Only | Print | Product List | Glossary On
Versions: 1 2 3 4 5 6 7 8 9 10 11 12
000
FTUS45 KTFX 281120
TAFCTB
TAF
KCTB 281120Z 2812/2912 26013KT P6SM SCT150
     FM281500 26020G27KT P6SM FEW040 SCT090
     FM290300 24011KT P6SM BKN090
     FM291100 25015G25KT P6SM OVC090=

USA.gov is the U.S. government's official web portal to all federal, state and local government web resources and services.